Time;durP1;ratioP1;P1;durP2;ratioP2;P2;SDS_P1;SDS_P2;PMS_P1;PMS_P2;Temp;Humidity;BMP_temperature;BMP_pressure;BME280_temperature;BME280_humidity;BME280_pressure;Samples;Min_cycle;Max_cycle;Signal;HPM_P1;HPM_P2
2022/12/01 00:00:44;;;;;;;0.80;0.60;;;5.60;99.90;;;5.39;64.55;95176.19;5080556;28;20470;-55
2022/12/01 00:03:12;;;;;;;0.70;0.50;;;5.50;99.90;;;5.34;64.69;95178.25;5082504;28;20485;-55
2022/12/01 00:05:39;;;;;;;0.80;0.50;;;5.50;99.90;;;5.30;64.58;95178.53;5083146;28;20474;-54
2022/12/01 00:08:06;;;;;;;0.70;0.40;;;5.50;99.80;;;5.26;64.19;95171.88;5079159;28;20469;-54
2022/12/01 00:10:34;;;;;;;0.70;0.50;;;5.40;99.90;;;5.21;64.31;95175.59;5083217;28;21008;-57
2022/12/01 00:13:03;;;;;;;0.70;0.50;;;5.40;99.90;;;5.20;64.40;95175.72;5076914;28;20458;-55
2022/12/01 00:15:33;;;;;;;0.70;0.50;;;5.30;99.90;;;5.17;64.50;95170.69;5082583;28;20478;-53
2022/12/01 00:18:00;;;;;;;0.70;0.50;;;5.30;99.90;;;5.16;64.14;95166.44;5082810;28;20454;-55
2022/12/01 00:20:28;;;;;;;0.80;0.50;;;5.30;99.80;;;5.13;63.94;95169.25;5079840;28;20478;-57
2022/12/01 00:22:55;;;;;;;0.90;0.50;;;5.30;99.70;;;5.10;64.65;95159.00;5080139;28;20485;-55
2022/12/01 00:25:22;;;;;;;0.70;0.40;;;5.30;99.90;;;5.09;64.50;95165.97;5078899;28;20485;-53
2022/12/01 00:27:51;;;;;;;0.70;0.57;;;5.20;99.80;;;5.08;64.61;95171.28;5080455;28;20469;-57
2022/12/01 00:30:20;;;;;;;1.30;0.60;;;5.20;99.80;;;5.07;64.46;95174.84;5079128;28;20533;-54
2022/12/01 00:32:47;;;;;;;0.70;0.40;;;5.20;99.80;;;5.06;64.38;95173.16;5084631;28;20834;-56
2022/12/01 00:35:15;;;;;;;0.80;0.60;;;5.20;99.80;;;5.03;64.51;95174.19;5079535;28;20931;-56
2022/12/01 00:37:42;;;;;;;1.30;0.67;;;5.20;99.90;;;5.03;64.92;95169.84;5082127;28;20960;-55
2022/12/01 00:40:11;;;;;;;0.80;0.50;;;5.20;99.90;;;5.05;64.62;95166.28;5083909;28;20497;-53
2022/12/01 00:42:38;;;;;;;0.83;0.53;;;5.20;99.90;;;5.06;64.37;95162.75;5078466;28;20493;-55
2022/12/01 00:45:09;;;;;;;1.03;0.50;;;5.20;99.90;;;5.05;64.51;95161.06;5079873;28;20485;-54
2022/12/01 00:47:36;;;;;;;0.80;0.50;;;5.20;99.90;;;5.03;64.81;95154.19;5078999;28;20921;-56
2022/12/01 00:50:03;;;;;;;0.90;0.50;;;5.20;99.90;;;5.06;64.71;95160.13;5082806;28;20486;-56
2022/12/01 00:52:31;;;;;;;0.80;0.60;;;5.20;99.90;;;5.01;64.41;95144.78;5084182;28;20461;-56
2022/12/01 00:54:58;;;;;;;1.73;1.03;;;5.20;99.80;;;4.99;64.46;95154.50;5083157;28;20528;-56
2022/12/01 00:57:25;;;;;;;0.90;0.60;;;5.20;99.90;;;4.95;64.50;95151.22;5081619;28;20971;-56
2022/12/01 00:59:52;;;;;;;0.87;0.70;;;5.10;99.80;;;4.95;64.74;95148.63;5081946;28;20478;-55
2022/12/01 01:02:21;;;;;;;0.80;0.80;;;5.10;99.90;;;4.95;64.54;95145.19;5077247;28;20490;-55
2022/12/01 01:04:48;;;;;;;2.80;0.80;;;5.10;99.80;;;4.96;64.67;95150.28;5079315;28;20486;-56
2022/12/01 01:07:16;;;;;;;1.70;0.93;;;5.10;99.90;;;4.99;64.52;95157.91;5077232;28;20463;-55
2022/12/01 01:09:43;;;;;;;1.10;0.77;;;5.10;99.80;;;4.99;64.52;95151.88;5073156;28;20545;-55
2022/12/01 01:12:10;;;;;;;1.17;1.07;;;5.10;99.80;;;4.98;64.50;95144.97;5082550;28;20453;-55
2022/12/01 01:14:37;;;;;;;0.70;0.50;;;5.10;99.70;;;4.95;63.97;95153.81;5079270;28;20470;-56
2022/12/01 01:17:05;;;;;;;0.97;0.50;;;5.10;99.50;;;4.95;64.07;95140.78;5076283;28;20454;-56
2022/12/01 01:19:33;;;;;;;0.70;0.50;;;5.10;99.50;;;4.95;63.89;95140.78;5080791;28;20547;-55
2022/12/01 01:22:01;;;;;;;0.80;0.50;;;5.10;99.40;;;4.95;63.96;95132.97;5078001;28;20489;-55
2022/12/01 01:24:28;;;;;;;1.20;0.63;;;5.10;99.30;;;4.90;63.68;95131.63;5081871;28;20551;-54
2022/12/01 01:26:55;;;;;;;0.80;0.50;;;5.10;99.30;;;4.88;63.89;95138.69;5080902;28;21032;-54
2022/12/01 01:29:22;;;;;;;0.83;0.50;;;5.00;99.30;;;4.86;64.21;95133.56;5079222;28;20478;-55
2022/12/01 01:31:50;;;;;;;0.70;0.40;;;5.00;99.50;;;4.85;63.37;95137.13;5074839;28;20492;-57
2022/12/01 01:34:17;;;;;;;1.37;0.50;;;5.00;99.10;;;4.81;63.72;95136.47;5082164;28;20473;-54
2022/12/01 01:36:45;;;;;;;0.70;0.40;;;5.00;99.20;;;4.82;64.39;95129.50;5075346;28;20875;-54
2022/12/01 01:39:13;;;;;;;0.80;0.50;;;5.00;99.50;;;4.79;64.06;95127.09;5079372;28;20553;-56
2022/12/01 01:41:40;;;;;;;0.70;0.50;;;5.00;99.30;;;4.76;63.74;95120.31;5079056;28;20462;-57
2022/12/01 01:44:50;;;;;;;1.03;0.83;;;4.90;99.30;;;4.74;63.91;95127.41;5080305;28;20543;-54
2022/12/01 01:47:19;;;;;;;0.70;0.40;;;4.90;99.20;;;4.71;64.02;95119.78;5073966;28;21055;-54
2022/12/01 01:49:46;;;;;;;0.70;0.40;;;4.90;99.30;;;4.71;63.67;95121.53;5078532;28;20478;-53
2022/12/01 01:52:15;;;;;;;1.00;0.50;;;4.90;99.30;;;4.72;64.20;95123.19;5080872;28;20470;-56
2022/12/01 01:54:44;;;;;;;0.70;0.40;;;4.90;99.50;;;4.72;63.72;95118.00;5074150;28;20483;-52
2022/12/01 01:57:12;;;;;;;0.70;0.50;;;4.90;99.20;;;4.72;63.45;95118.00;5077128;28;20442;-55
2022/12/01 01:59:42;;;;;;;0.70;0.50;;;4.90;99.00;;;4.67;63.56;95113.91;5080345;28;20496;-52
2022/12/01 02:02:10;;;;;;;0.70;0.40;;;4.90;99.00;;;4.69;63.71;95113.81;5080069;28;20482;-53
2022/12/01 02:04:40;;;;;;;0.70;0.40;;;4.90;99.20;;;4.70;63.84;95112.06;5074642;28;20474;-55
2022/12/01 02:07:07;;;;;;;1.00;0.60;;;4.90;99.30;;;4.70;63.95;95109.44;5079655;28;20450;-53
2022/12/01 02:09:36;;;;;;;0.80;0.53;;;4.90;99.30;;;4.69;64.05;95102.56;5079751;28;20465;-54
2022/12/01 02:12:16;;;;;;;0.70;0.40;;;4.90;99.40;;;4.69;64.26;95107.75;5078477;28;20461;-56
2022/12/01 02:15:02;;;;;;;0.80;0.50;;;4.90;99.50;;;4.66;63.90;95098.38;5078037;28;20469;-55
2022/12/01 02:17:33;;;;;;;0.67;0.40;;;4.90;99.50;;;4.62;64.37;95102.13;5083866;28;20439;-55
2022/12/01 02:20:50;;;;;;;0.90;0.67;;;4.80;99.60;;;4.60;64.83;95099.63;5087066;28;20475;-57
2022/12/01 02:24:05;;;;;;;0.80;0.50;;;4.80;99.80;;;4.61;64.93;95103.88;5077578;28;20508;-56
2022/12/01 02:26:44;;;;;;;0.83;0.50;;;4.80;99.90;;;4.63;65.02;95104.63;5045250;28;20508;-54
2022/12/01 02:29:30;;;;;;;0.80;0.67;;;4.80;99.90;;;4.62;65.14;95108.16;5080101;28;21043;-56
2022/12/01 02:32:01;;;;;;;1.10;0.70;;;4.80;99.90;;;4.62;64.75;95108.16;5075087;28;20473;-57
2022/12/01 02:34:33;;;;;;;1.13;1.03;;;4.80;99.90;;;4.65;64.79;95104.53;5073680;28;20482;-55
2022/12/01 02:37:05;;;;;;;2.00;1.87;;;4.80;99.90;;;4.64;64.88;95100.25;5078088;28;20454;-55
2022/12/01 02:39:34;;;;;;;2.10;2.00;;;4.80;99.90;;;4.61;64.94;95103.03;5082849;28;20489;-56
2022/12/01 02:42:04;;;;;;;2.50;2.03;;;4.80;99.90;;;4.58;64.87;95111.88;5082721;28;20458;-56
2022/12/01 02:44:33;;;;;;;5.77;2.83;;;4.80;99.90;;;4.56;64.96;95103.34;5072350;28;20932;-56
2022/12/01 02:47:03;;;;;;;3.60;2.73;;;4.80;99.90;;;4.56;65.14;95100.72;5080515;28;20462;-54
2022/12/01 02:49:33;;;;;;;1.97;1.73;;;4.70;99.90;;;4.57;64.92;95104.16;5077981;28;20543;-55
2022/12/01 02:52:00;;;;;;;1.00;0.90;;;4.70;99.90;;;4.56;65.23;95105.94;5076322;28;20535;-54
2022/12/01 02:54:29;;;;;;;1.10;1.00;;;4.70;99.90;;;4.55;65.22;95104.25;5079198;28;20494;-51
2022/12/01 02:56:56;;;;;;;0.90;0.80;;;4.70;99.90;;;4.54;65.35;95097.41;5075128;28;20469;-55
2022/12/01 02:59:23;;;;;;;0.83;0.47;;;4.70;99.90;;;4.58;65.14;95098.84;5079351;28;20473;-54
2022/12/01 03:02:04;;;;;;;0.90;0.60;;;4.70;99.90;;;4.61;65.05;95103.03;5080822;28;20450;-56
2022/12/01 03:04:49;;;;;;;0.80;0.50;;;4.80;99.90;;;4.65;65.26;95105.34;5079320;28;20592;-54
2022/12/01 03:07:39;;;;;;;0.70;0.50;;;4.80;99.90;;;4.65;64.94;95099.31;5074856;28;20443;-54
2022/12/01 03:10:15;;;;;;;1.30;0.50;;;4.80;99.90;;;4.63;65.27;95103.78;5076644;28;20466;-55
2022/12/01 03:12:50;;;;;;;0.80;0.60;;;4.80;99.90;;;4.62;65.21;95100.34;5073230;28;20869;-55
2022/12/01 03:15:22;;;;;;;0.70;0.50;;;4.80;99.90;;;4.63;65.12;95099.41;5077213;28;20466;-56
2022/12/01 03:17:54;;;;;;;0.90;0.70;;;4.80;99.90;;;4.67;65.03;95094.84;5078213;28;20446;-55
2022/12/01 03:20:23;;;;;;;1.10;1.00;;;4.80;99.90;;;4.69;65.00;95094.75;5072713;28;20459;-56
2022/12/01 03:22:52;;;;;;;1.20;0.80;;;4.90;99.90;;;4.72;64.93;95091.94;5079918;28;20517;-55
2022/12/01 03:25:20;;;;;;;0.80;0.60;;;4.90;99.90;;;4.77;65.18;95095.06;5080518;28;20478;-54
2022/12/01 03:27:47;;;;;;;0.80;0.60;;;4.90;99.90;;;4.81;64.98;95086.13;5083783;28;20468;-55
2022/12/01 03:30:16;;;;;;;0.80;0.50;;;5.00;99.90;;;4.77;65.08;95085.50;5076321;28;20530;-55
2022/12/01 03:32:46;;;;;;;0.80;0.50;;;5.00;99.90;;;4.78;64.82;95091.53;5076539;28;20481;-56
2022/12/01 03:35:18;;;;;;;0.80;0.60;;;5.00;99.90;;;4.77;64.79;95095.94;5078362;28;20477;-55
2022/12/01 03:37:47;;;;;;;0.80;0.47;;;5.00;99.90;;;4.75;64.81;95097.78;5077589;28;20547;-56
2022/12/01 03:40:18;;;;;;;0.77;0.50;;;5.00;99.90;;;4.71;65.12;95091.13;5082281;28;20486;-56
2022/12/01 03:42:47;;;;;;;0.70;0.50;;;4.90;99.90;;;4.69;64.82;95102.56;5075953;28;20528;-54
2022/12/01 03:45:17;;;;;;;0.70;0.43;;;4.90;99.90;;;4.67;65.18;95100.88;5082077;28;21077;-53
2022/12/01 03:47:44;;;;;;;2.03;0.53;;;4.90;99.90;;;4.63;65.01;95096.81;5081229;28;20462;-53
2022/12/01 03:50:12;;;;;;;0.70;0.50;;;4.80;99.90;;;4.61;65.03;95093.44;5082787;28;21156;-54
2022/12/01 03:52:45;;;;;;;2.00;0.50;;;4.80;99.90;;;4.62;64.95;95097.75;5082122;28;20541;-56
2022/12/01 03:55:16;;;;;;;0.87;0.70;;;4.80;99.90;;;4.62;64.91;95092.53;5078007;28;20474;-54
2022/12/01 03:57:47;;;;;;;1.20;1.10;;;4.80;99.90;;;4.60;64.82;95098.75;5075791;28;20455;-56
2022/12/01 04:00:15;;;;;;;1.63;1.30;;;4.80;99.90;;;4.58;64.66;95098.84;5077551;28;20461;-55
2022/12/01 04:02:43;;;;;;;1.30;1.20;;;4.80;99.80;;;4.56;64.54;95092.91;5076839;28;21009;-56
2022/12/01 04:05:10;;;;;;;2.93;0.90;;;4.70;99.70;;;4.55;64.59;95091.22;5076811;28;20481;-55
2022/12/01 04:07:38;;;;;;;1.33;1.20;;;4.70;99.70;;;4.51;64.36;95096.75;5083141;28;20883;-54
2022/12/01 04:10:08;;;;;;;1.10;1.00;;;4.70;99.60;;;4.49;64.72;95092.47;5078349;28;20573;-56
2022/12/01 04:12:34;;;;;;;1.10;0.80;;;4.70;99.60;;;4.48;64.17;95092.59;5071563;28;20512;-55
2022/12/01 04:15:04;;;;;;;1.37;0.80;;;4.70;99.60;;;4.52;64.72;95088.81;5079691;28;20482;-57
2022/12/01 04:17:31;;;;;;;2.50;0.70;;;4.70;99.70;;;4.54;64.43;95078.31;5080774;28;20969;-54
2022/12/01 04:19:59;;;;;;;2.40;0.53;;;4.70;99.60;;;4.55;64.06;95091.22;5080489;28;20485;-55
2022/12/01 04:22:26;;;;;;;0.90;0.60;;;4.70;99.40;;;4.53;64.17;95085.31;5078983;28;20627;-56
2022/12/01 04:24:53;;;;;;;0.80;0.67;;;4.70;99.30;;;4.54;64.05;95097.41;5078091;28;20470;-54
2022/12/01 04:27:22;;;;;;;0.80;0.50;;;4.70;99.30;;;4.57;64.30;95099.81;5084429;28;20454;-55
2022/12/01 04:29:49;;;;;;;1.00;0.67;;;4.80;99.50;;;4.58;63.83;95095.41;5078026;28;20563;-56
2022/12/01 04:32:16;;;;;;;0.97;0.60;;;4.80;99.20;;;4.61;63.81;95105.66;5073942;28;20462;-57
2022/12/01 04:34:44;;;;;;;0.90;0.60;;;4.80;99.30;;;4.61;63.64;95100.44;5078278;28;21001;-57
2022/12/01 04:37:11;;;;;;;1.20;1.10;;;4.80;99.20;;;4.61;63.75;95096.06;5078134;28;20528;-55
2022/12/01 04:39:40;;;;;;;1.80;0.70;;;4.80;99.20;;;4.60;63.89;95097.00;5079195;28;20564;-55
2022/12/01 04:42:08;;;;;;;1.00;0.90;;;4.80;99.20;;;4.63;63.91;95104.63;5083366;28;20515;-55
2022/12/01 04:44:37;;;;;;;1.83;0.90;;;4.80;99.60;;;4.62;63.78;95100.34;5081969;28;20538;-55
2022/12/01 04:47:04;;;;;;;1.03;0.80;;;4.80;99.10;;;4.64;63.75;95098.47;5084764;28;20461;-55
2022/12/01 04:49:33;;;;;;;1.10;0.80;;;4.80;99.20;;;4.63;63.39;95107.22;5081927;28;20477;-57
2022/12/01 04:52:01;;;;;;;1.00;0.90;;;4.80;98.90;;;4.63;63.26;95109.84;5081258;28;20492;-54
2022/12/01 04:54:28;;;;;;;4.27;1.80;;;4.80;98.90;;;4.66;63.41;95107.03;5082997;28;20563;-55
2022/12/01 04:56:55;;;;;;;0.80;0.50;;;4.90;99.00;;;4.69;63.45;95111.19;5080858;28;20449;-54
2022/12/01 04:59:23;;;;;;;0.80;0.70;;;4.80;99.30;;;4.70;63.32;95112.88;5080015;28;20490;-56
2022/12/01 05:01:51;;;;;;;0.80;0.70;;;4.90;98.80;;;4.75;63.28;95123.00;5080480;28;20507;-54
2022/12/01 05:04:19;;;;;;;2.03;1.10;;;4.90;98.90;;;4.73;63.20;95115.28;5081966;28;20873;-54
2022/12/01 05:06:46;;;;;;;1.57;0.90;;;4.90;98.60;;;4.74;62.60;95116.13;5080772;28;20472;-54
2022/12/01 05:09:14;;;;;;;1.30;0.90;;;4.90;98.60;;;4.76;64.38;95119.47;5080388;28;20893;-55
2022/12/01 05:11:41;;;;;;;2.93;1.40;;;4.90;99.80;;;4.84;64.41;95120.63;5078071;28;20455;-54
2022/12/01 05:14:09;;;;;;;1.10;1.00;;;5.00;99.80;;;4.98;65.36;95118.91;5073385;28;20461;-55
2022/12/01 05:16:36;;;;;;;1.77;0.90;;;5.10;99.90;;;5.08;65.20;95120.00;5080080;28;20450;-56
2022/12/01 05:21:51;;;;;;;4.90;2.37;;;5.30;99.90;;;5.32;65.76;95122.75;5076646;28;20587;-56
2022/12/01 05:24:18;;;;;;;3.63;1.57;;;5.40;99.90;;;5.45;65.18;95117.53;5081794;28;20511;-56
2022/12/01 05:26:46;;;;;;;1.30;1.20;;;5.60;99.90;;;5.51;63.99;95117.13;5078871;28;20942;-55
2022/12/01 05:29:13;;;;;;;1.17;1.07;;;5.70;99.70;;;5.61;66.70;95119.97;5082609;28;20478;-55
2022/12/01 05:31:40;;;;;;;1.57;1.10;;;5.70;99.90;;;5.75;63.94;95119.88;5078043;28;20455;-56
2022/12/01 05:34:09;;;;;;;2.53;1.43;;;5.90;99.90;;;5.86;64.08;95115.72;5080373;28;20469;-54
2022/12/01 05:36:37;;;;;;;1.53;0.83;;;5.90;99.70;;;5.91;61.07;95118.81;5078638;28;20455;-57
2022/12/01 05:39:04;;;;;;;0.90;0.80;;;6.00;97.60;;;5.85;60.73;95116.63;5081999;28;20476;-53
2022/12/01 05:41:31;;;;;;;1.00;0.70;;;6.00;97.00;;;5.72;61.02;95127.09;5077576;28;20458;-54
2022/12/01 05:43:58;;;;;;;1.93;0.87;;;5.90;97.00;;;5.56;60.40;95115.06;5082308;28;21066;-54
2022/12/01 05:46:26;;;;;;;1.63;1.10;;;5.80;96.90;;;5.43;61.48;95126.44;5077907;28;20562;-55
2022/12/01 05:48:53;;;;;;;1.27;1.17;;;5.60;97.20;;;5.32;62.14;95133.19;5075376;28;20547;-56
2022/12/01 05:51:22;;;;;;;1.20;0.97;;;5.50;97.80;;;5.28;62.21;95131.69;5078968;28;20451;-55
2022/12/01 05:53:49;;;;;;;2.03;1.80;;;5.50;98.00;;;5.27;62.46;95130.06;5079327;28;20446;-57
2022/12/01 05:56:16;;;;;;;1.30;1.20;;;5.40;98.20;;;5.24;62.80;95132.88;5081775;28;20529;-56
2022/12/01 05:58:44;;;;;;;1.20;1.10;;;5.40;98.20;;;5.18;62.80;95130.66;5075528;28;20446;-56
2022/12/01 06:01:11;;;;;;;5.57;2.10;;;5.40;98.20;;;5.14;63.14;95127.44;5079770;28;21553;-55
2022/12/01 06:03:38;;;;;;;4.97;1.70;;;5.30;98.40;;;5.12;63.22;95131.06;5078896;28;21025;-56
2022/12/01 06:06:06;;;;;;;1.27;1.17;;;5.30;98.60;;;5.14;63.14;95134.38;5079674;28;20519;-55
2022/12/01 06:08:35;;;;;;;3.50;2.70;;;5.30;98.60;;;5.10;63.37;95133.75;5078902;28;20465;-56
2022/12/01 06:11:02;;;;;;;1.33;1.23;;;5.30;98.80;;;5.10;62.80;95131.16;5080152;28;20453;-55
2022/12/01 06:13:29;;;;;;;1.20;0.83;;;5.30;98.40;;;5.06;62.44;95131.47;5073298;28;20495;-57
2022/12/01 06:15:58;;;;;;;3.03;0.80;;;5.20;98.10;;;4.98;62.50;95127.56;5081660;28;20663;-58
2022/12/01 06:18:26;;;;;;;1.30;0.87;;;5.20;98.10;;;4.92;62.74;95127.13;5079302;28;20839;-55
2022/12/01 06:20:53;;;;;;;0.90;0.70;;;5.10;98.10;;;4.88;62.74;95134.31;5077284;28;20538;-55
2022/12/01 06:23:21;;;;;;;1.00;0.83;;;5.10;98.30;;;4.86;63.32;95141.38;5071285;28;20493;-55
2022/12/01 06:25:49;;;;;;;0.97;0.73;;;5.00;98.60;;;4.84;62.79;95133.66;5076721;28;20454;-55
2022/12/01 06:28:17;;;;;;;2.30;0.80;;;5.00;98.40;;;4.81;62.83;95130.44;5071287;28;20447;-54
2022/12/01 06:30:44;;;;;;;1.87;1.10;;;5.00;98.50;;;4.79;62.94;95134.91;5080610;28;20679;-57
2022/12/01 06:33:11;;;;;;;1.37;1.10;;;5.00;98.60;;;4.75;63.26;95129.03;5077578;28;20451;-56
2022/12/01 06:35:39;;;;;;;3.70;1.40;;;4.90;98.60;;;4.67;63.36;95133.91;5080806;28;20473;-57
2022/12/01 06:38:06;;;;;;;1.00;0.90;;;4.90;98.70;;;4.62;63.88;95134.22;5077519;28;20496;-56
2022/12/01 06:40:33;;;;;;;2.17;1.23;;;4.80;99.00;;;4.60;63.78;95138.69;5081226;28;20478;-56
2022/12/01 06:43:02;;;;;;;2.03;1.67;;;4.80;99.10;;;4.56;64.05;95131.16;5077286;28;20489;-56
2022/12/01 06:45:30;;;;;;;4.20;2.60;;;4.70;99.20;;;4.53;64.42;95126.16;5081190;28;20470;-55
2022/12/01 06:47:57;;;;;;;3.83;2.83;;;4.70;99.50;;;4.53;64.38;95140.00;5079811;28;21064;-54
2022/12/01 06:50:25;;;;;;;4.33;3.83;;;4.70;99.60;;;4.53;64.73;95134.78;5076338;28;20493;-56
2022/12/01 06:52:52;;;;;;;1.60;1.50;;;4.70;99.70;;;4.52;64.87;95135.72;5071216;28;20871;-57
2022/12/01 06:55:19;;;;;;;7.00;1.40;;;4.70;99.90;;;4.51;65.02;95136.66;5076394;28;20477;-57
2022/12/01 06:57:47;;;;;;;1.63;1.53;;;4.70;99.90;;;4.47;65.39;95137.78;5079249;28;20508;-57
2022/12/01 07:00:17;;;;;;;2.27;1.87;;;4.70;99.90;;;4.40;65.91;95136.47;5079804;28;20474;-54
2022/12/01 07:02:44;;;;;;;3.93;2.27;;;4.60;99.90;;;4.35;66.18;95135.94;5077594;28;20477;-56
2022/12/01 07:05:11;;;;;;;6.70;2.50;;;4.60;99.90;;;4.33;65.82;95141.25;5080955;28;20870;-56
2022/12/01 07:07:39;;;;;;;6.90;2.70;;;4.50;99.90;;;4.34;66.33;95129.91;5077230;28;20471;-54
2022/12/01 07:10:08;;;;;;;3.93;2.53;;;4.50;99.90;;;4.30;67.17;95129.25;5075153;28;20467;-56
2022/12/01 07:12:35;;;;;;;5.10;2.07;;;4.50;99.90;;;4.29;66.99;95143.22;5080276;28;20447;-55
2022/12/01 07:15:02;;;;;;;2.23;1.70;;;4.50;99.90;;;4.25;67.48;95146.91;5081725;28;20846;-55
2022/12/01 07:17:31;;;;;;;6.67;3.37;;;4.50;99.90;;;4.22;68.35;95152.31;5080807;28;20450;-54
2022/12/01 07:19:58;;;;;;;3.83;2.67;;;4.40;99.90;;;4.19;68.66;95147.28;5082985;28;20461;-56
2022/12/01 07:22:26;;;;;;;9.27;4.37;;;4.40;99.90;;;4.17;68.62;95143.97;5083412;28;20964;-56
2022/12/01 07:24:53;;;;;;;5.77;3.30;;;4.40;99.90;;;4.12;68.49;95141.63;5082369;28;20490;-53
2022/12/01 07:27:20;;;;;;;2.37;2.07;;;4.30;99.90;;;4.11;68.84;95146.94;5083393;28;20874;-57
2022/12/01 07:29:48;;;;;;;3.03;2.00;;;4.30;99.90;;;4.05;68.57;95144.72;5081637;28;20486;-54
2022/12/01 07:32:16;;;;;;;1.63;1.53;;;4.30;99.90;;;3.95;68.71;95145.25;5083281;28;20483;-56
2022/12/01 07:34:44;;;;;;;1.97;1.87;;;4.20;99.90;;;3.88;68.65;95143.13;5073254;28;20493;-53
2022/12/01 07:37:12;;;;;;;3.13;1.70;;;4.10;99.90;;;3.81;69.20;95145.28;5079351;28;20465;-56
2022/12/01 07:39:39;;;;;;;1.10;1.00;;;4.00;99.90;;;3.78;68.74;95140.25;5072908;28;20477;-56
2022/12/01 07:42:06;;;;;;;0.80;0.73;;;4.00;99.90;;;3.78;69.72;95145.47;5078277;28;20787;-55
2022/12/01 07:44:34;;;;;;;1.37;1.20;;;4.00;99.90;;;3.74;69.91;95146.56;5072834;28;20505;-55
2022/12/01 07:47:01;;;;;;;1.10;1.00;;;4.00;99.90;;;3.70;70.58;95145.91;5080148;28;20838;-56
2022/12/01 07:49:28;;;;;;;1.53;1.13;;;3.90;99.90;;;3.67;70.27;95138.28;5072416;28;20983;-56
2022/12/01 07:51:57;;;;;;;2.20;2.00;;;3.90;99.90;;;3.66;70.77;95141.81;5080547;28;20450;-54
2022/12/01 07:54:25;;;;;;;5.33;3.30;;;3.90;99.90;;;3.66;70.64;95140.97;5079904;28;20470;-54
2022/12/01 07:56:53;;;;;;;4.33;3.67;;;3.90;99.90;;;3.65;70.65;95140.13;5077562;28;20446;-55
2022/12/01 07:59:20;;;;;;;4.57;3.60;;;3.90;99.90;;;3.66;71.09;95151.38;5075212;28;20546;-54
2022/12/01 08:01:47;;;;;;;6.17;3.17;;;3.90;99.90;;;3.65;71.14;95147.09;5077018;28;20511;-56
2022/12/01 08:04:15;;;;;;;2.83;2.43;;;3.90;99.90;;;3.66;70.93;95139.22;5071742;28;20529;-55
2022/12/01 08:06:42;;;;;;;1.60;1.47;;;3.90;99.90;;;3.71;70.76;95144.13;5075444;28;20446;-55
2022/12/01 08:09:11;;;;;;;2.23;1.27;;;3.90;99.90;;;3.73;71.53;95150.06;5076120;28;20479;-55
2022/12/01 08:11:38;;;;;;;3.27;1.50;;;3.90;99.90;;;3.72;70.81;95143.22;5074079;28;20994;-56
2022/12/01 08:14:05;;;;;;;2.50;1.07;;;3.90;99.90;;;3.72;71.01;95143.22;5076385;28;20519;-56
2022/12/01 08:16:33;;;;;;;1.43;1.20;;;3.90;99.90;;;3.69;71.72;95141.63;5078716;28;20450;-53
2022/12/01 08:19:00;;;;;;;1.47;1.37;;;3.90;99.90;;;3.74;71.11;95151.75;5080679;28;20466;-56
2022/12/01 08:21:27;;;;;;;2.07;1.40;;;3.90;99.90;;;3.78;71.11;95145.47;5083227;28;20458;-57
2022/12/01 08:23:55;;;;;;;10.23;1.80;;;4.00;99.90;;;3.82;70.70;95148.69;5080402;28;20980;-53
2022/12/01 08:26:25;;;;;;;2.40;2.20;;;4.00;99.90;;;3.87;70.51;95144.91;5083230;28;20811;-56
2022/12/01 08:28:52;;;;;;;1.90;1.67;;;4.00;99.90;;;3.87;70.33;95147.50;5080906;28;20504;-55
2022/12/01 08:31:21;;;;;;;2.90;1.70;;;4.10;99.90;;;3.87;69.78;95150.09;5082467;28;20462;-56
2022/12/01 08:33:49;;;;;;;1.87;1.70;;;4.10;99.90;;;3.91;69.80;95154.19;5081927;28;20458;-53
2022/12/01 08:36:17;;;;;;;2.33;2.07;;;4.10;99.90;;;3.94;69.68;95156.59;5080615;28;20446;-56
2022/12/01 08:38:44;;;;;;;2.50;1.97;;;4.10;99.90;;;3.99;69.27;95147.69;5082097;28;20532;-56
2022/12/01 08:41:12;;;;;;;2.13;1.70;;;4.20;99.90;;;4.02;68.70;95150.09;5081388;28;20507;-56
2022/12/01 08:43:43;;;;;;;2.37;1.70;;;4.20;99.90;;;4.05;68.65;95152.53;5081988;28;20884;-56
2022/12/01 08:46:10;;;;;;;2.03;1.83;;;4.20;99.90;;;4.04;68.73;95146.47;5080183;28;20443;-55
2022/12/01 08:48:38;;;;;;;4.83;2.90;;;4.20;99.90;;;4.05;68.49;95144.72;5082072;28;21046;-55
2022/12/01 08:51:10;;;;;;;5.67;2.30;;;4.20;99.90;;;4.04;68.32;95141.25;5079890;28;20537;-55
2022/12/01 08:53:38;;;;;;;6.20;1.53;;;4.20;99.90;;;4.09;68.16;95140.97;5082977;28;20546;-56
2022/12/01 08:56:08;;;;;;;5.47;3.10;;;4.30;99.90;;;4.13;67.71;95142.47;5079644;28;20877;-56
2022/12/01 08:58:35;;;;;;;3.30;2.60;;;4.30;99.90;;;4.16;67.79;95139.69;5081487;28;20545;-55
2022/12/01 09:01:06;;;;;;;2.67;2.03;;;4.40;99.90;;;4.24;67.84;95136.59;5079575;28;20810;-56
2022/12/01 09:03:34;;;;;;;3.53;2.60;;;4.40;99.90;;;4.29;67.14;95143.22;5083440;28;20561;-56
2022/12/01 09:06:05;;;;;;;5.47;3.00;;;4.50;99.90;;;4.29;67.05;95145.81;5080428;28;20907;-54
2022/12/01 09:08:34;;;;;;;1.70;1.60;;;4.50;99.90;;;4.27;66.62;95139.00;5075131;28;20446;-55
2022/12/01 09:11:02;;;;;;;4.20;1.27;;;4.50;99.90;;;4.26;66.90;95135.59;5080331;28;20539;-56
2022/12/01 09:13:30;;;;;;;7.73;1.80;;;4.50;99.90;;;4.32;67.46;95136.94;5074869;28;20447;-56
2022/12/01 09:15:58;;;;;;;8.57;2.40;;;4.50;99.90;;;4.37;66.83;95126.25;5082724;28;20527;-56
2022/12/01 09:18:27;;;;;;;14.10;3.00;;;4.60;99.90;;;4.39;66.16;95133.03;5080179;28;20455;-56
2022/12/01 09:20:55;;;;;;;6.47;3.47;;;4.50;99.90;;;4.39;66.54;95130.44;5081806;28;20462;-54
2022/12/01 09:23:22;;;;;;;5.37;2.03;;;4.60;99.90;;;4.39;66.23;95132.22;5079812;28;20532;-57
2022/12/01 09:25:50;;;;;;;7.50;2.43;;;4.60;99.90;;;4.40;66.37;95124.31;5081586;28;20497;-55
2022/12/01 09:28:17;;;;;;;5.80;2.63;;;4.60;99.90;;;4.42;66.58;95122.44;5077909;28;20454;-56
2022/12/01 09:30:45;;;;;;;1.97;1.80;;;4.60;99.90;;;4.49;66.53;95125.47;5081955;28;21001;-56
2022/12/01 09:33:12;;;;;;;1.30;1.20;;;4.70;99.90;;;4.52;66.05;95127.91;5078137;28;20989;-55
2022/12/01 09:35:41;;;;;;;3.20;1.23;;;4.70;99.90;;;4.53;66.14;95119.16;5081834;28;20470;-56
2022/12/01 09:38:08;;;;;;;2.43;2.00;;;4.70;99.90;;;4.56;66.12;95113.75;5078498;28;20513;-56
2022/12/01 09:40:37;;;;;;;1.83;1.73;;;4.70;99.90;;;4.60;66.06;95119.59;5080911;28;20474;-56
2022/12/01 09:43:06;;;;;;;2.37;1.67;;;4.80;99.90;;;4.63;65.78;95109.84;5078328;28;20447;-55
2022/12/01 09:45:39;;;;;;;1.80;1.70;;;4.80;99.90;;;4.67;65.77;95105.25;5080722;28;20930;-54
2022/12/01 09:48:06;;;;;;;1.37;1.20;;;4.90;99.90;;;4.71;65.67;95111.97;5078469;28;20454;-56
2022/12/01 09:50:33;;;;;;;2.30;1.53;;;4.90;99.90;;;4.76;65.58;95109.88;5080929;28;20466;-55
2022/12/01 09:53:05;;;;;;;2.93;2.20;;;4.90;99.90;;;4.79;65.22;95107.06;5078729;28;20953;-55
2022/12/01 09:55:32;;;;;;;9.23;2.57;;;5.00;99.90;;;4.81;65.05;95109.59;5078676;28;20470;-55
2022/12/01 09:58:01;;;;;;;1.10;1.00;;;5.00;99.90;;;4.82;65.14;95108.66;5073758;28;20446;-56
2022/12/01 10:00:31;;;;;;;3.40;1.40;;;5.00;99.90;;;4.83;64.29;95108.56;5079835;28;20466;-57
2022/12/01 10:03:04;;;;;;;0.87;0.80;;;5.00;99.90;;;4.82;64.37;95104.28;5080532;28;21013;-54
2022/12/01 10:05:44;;;;;;;2.50;0.70;;;5.00;99.90;;;4.81;64.40;95101.78;5078545;28;20847;-54
2022/12/01 10:08:14;;;;;;;1.17;0.80;;;5.00;99.80;;;4.80;64.68;95100.94;5079816;28;20495;-56
2022/12/01 10:10:45;;;;;;;0.83;0.70;;;5.00;99.90;;;4.80;64.45;95097.47;5078085;28;20556;-55
2022/12/01 10:13:17;;;;;;;1.37;1.27;;;5.00;99.90;;;4.79;64.77;95096.66;5072177;28;20487;-55
2022/12/01 10:15:50;;;;;;;2.40;2.20;;;5.00;99.90;;;4.81;64.54;95092.16;5076731;28;20462;-56
2022/12/01 10:18:35;;;;;;;8.10;3.93;;;5.00;99.90;;;4.83;64.41;95094.69;5078530;28;21174;-56
2022/12/01 10:21:10;;;;;;;6.10;4.40;;;5.00;99.90;;;4.83;64.17;95089.47;5079611;28;20526;-56
2022/12/01 10:23:50;;;;;;;4.33;2.50;;;5.00;99.80;;;4.86;63.88;95089.25;5077351;28;20986;-56
2022/12/01 10:26:25;;;;;;;3.47;2.03;;;5.00;99.70;;;4.88;64.45;95087.41;5077073;28;20526;-56
2022/12/01 10:29:10;;;;;;;1.70;1.60;;;5.00;99.80;;;4.90;64.06;95088.13;5079322;28;20508;-55
2022/12/01 10:31:45;;;;;;;2.60;1.50;;;5.10;99.50;;;4.90;63.82;95085.53;5072786;28;20884;-55
2022/12/01 10:34:16;;;;;;;1.33;1.20;;;5.10;99.50;;;4.94;63.89;95087.00;5080736;28;20668;-56
2022/12/01 10:36:44;;;;;;;1.57;1.47;;;5.10;99.40;;;4.96;63.57;95082.53;5077331;28;20528;-54
2022/12/01 10:39:20;;;;;;;3.33;1.67;;;5.10;99.30;;;4.98;62.62;95092.84;5078740;28;20946;-55
2022/12/01 10:41:47;;;;;;;1.30;1.20;;;5.10;98.90;;;4.97;62.98;95086.81;5080888;28;20941;-54
2022/12/01 10:44:15;;;;;;;6.33;1.13;;;5.10;98.90;;;4.98;63.07;95085.84;5077805;28;20470;-56